sensor_id;sensor_type;location;lat;lon;timestamp;temperature;humidity
33271;DHT22;53180;51.344;6.152;2023-03-21T00:00:54;10.50;77.40
33271;DHT22;53180;51.344;6.152;2023-03-21T00:03:23;10.50;77.50
33271;DHT22;53180;51.344;6.152;2023-03-21T00:05:52;10.50;77.60
33271;DHT22;53180;51.344;6.152;2023-03-21T00:08:23;10.50;77.70
33271;DHT22;53180;51.344;6.152;2023-03-21T00:10:56;10.50;77.80
33271;DHT22;53180;51.344;6.152;2023-03-21T00:13:26;10.50;77.90
33271;DHT22;53180;51.344;6.152;2023-03-21T00:16:04;10.50;77.90
33271;DHT22;53180;51.344;6.152;2023-03-21T00:18:46;10.50;78.10
33271;DHT22;53180;51.344;6.152;2023-03-21T00:21:20;10.50;78.00
33271;DHT22;53180;51.344;6.152;2023-03-21T00:24:14;10.50;77.90
33271;DHT22;53180;51.344;6.152;2023-03-21T00:26:42;10.50;78.00
33271;DHT22;53180;51.344;6.152;2023-03-21T00:29:10;10.50;77.80
33271;DHT22;53180;51.344;6.152;2023-03-21T00:31:40;10.50;78.00
33271;DHT22;53180;51.344;6.152;2023-03-21T00:34:08;10.50;78.00
33271;DHT22;53180;51.344;6.152;2023-03-21T00:36:36;10.40;77.90
33271;DHT22;53180;51.344;6.152;2023-03-21T00:39:05;10.40;78.10
33271;DHT22;53180;51.344;6.152;2023-03-21T00:41:33;10.40;77.80
33271;DHT22;53180;51.344;6.152;2023-03-21T00:44:09;10.40;77.80
33271;DHT22;53180;51.344;6.152;2023-03-21T00:46:40;10.40;77.90
33271;DHT22;53180;51.344;6.152;2023-03-21T00:49:26;10.40;78.00
33271;DHT22;53180;51.344;6.152;2023-03-21T00:51:59;10.40;78.20
33271;DHT22;53180;51.344;6.152;2023-03-21T00:54:41;10.30;78.50
33271;DHT22;53180;51.344;6.152;2023-03-21T00:57:09;10.30;79.10
33271;DHT22;53180;51.344;6.152;2023-03-21T00:59:38;10.30;79.40
33271;DHT22;53180;51.344;6.152;2023-03-21T01:02:07;10.30;79.70
33271;DHT22;53180;51.344;6.152;2023-03-21T01:04:40;10.30;79.60
33271;DHT22;53180;51.344;6.152;2023-03-21T01:07:09;10.20;79.70
33271;DHT22;53180;51.344;6.152;2023-03-21T01:09:37;10.30;79.70
33271;DHT22;53180;51.344;6.152;2023-03-21T01:12:05;10.30;79.90
33271;DHT22;53180;51.344;6.152;2023-03-21T01:14:34;10.30;79.80
33271;DHT22;53180;51.344;6.152;2023-03-21T01:17:02;10.20;79.90
33271;DHT22;53180;51.344;6.152;2023-03-21T01:19:32;10.20;80.10
33271;DHT22;53180;51.344;6.152;2023-03-21T01:22:16;10.20;80.30
33271;DHT22;53180;51.344;6.152;2023-03-21T01:24:44;10.20;80.30
33271;DHT22;53180;51.344;6.152;2023-03-21T01:27:24;10.20;80.40
33271;DHT22;53180;51.344;6.152;2023-03-21T01:29:52;10.20;80.50
33271;DHT22;53180;51.344;6.152;2023-03-21T01:32:21;10.20;80.50
33271;DHT22;53180;51.344;6.152;2023-03-21T01:34:50;10.20;80.70
33271;DHT22;53180;51.344;6.152;2023-03-21T01:37:18;10.20;80.70
33271;DHT22;53180;51.344;6.152;2023-03-21T01:39:47;10.20;80.80
33271;DHT22;53180;51.344;6.152;2023-03-21T01:42:15;10.20;80.80
33271;DHT22;53180;51.344;6.152;2023-03-21T01:44:57;10.20;81.00
33271;DHT22;53180;51.344;6.152;2023-03-21T01:47:26;10.20;80.90
33271;DHT22;53180;51.344;6.152;2023-03-21T01:49:59;10.20;80.90
33271;DHT22;53180;51.344;6.152;2023-03-21T01:52:31;10.20;80.80
33271;DHT22;53180;51.344;6.152;2023-03-21T01:55:07;10.20;80.70
33271;DHT22;53180;51.344;6.152;2023-03-21T01:57:41;10.20;80.80
33271;DHT22;53180;51.344;6.152;2023-03-21T02:00:30;10.10;80.80
33271;DHT22;53180;51.344;6.152;2023-03-21T02:03:00;10.10;80.80
33271;DHT22;53180;51.344;6.152;2023-03-21T02:05:55;10.20;80.80
33271;DHT22;53180;51.344;6.152;2023-03-21T02:08:28;10.10;80.80
33271;DHT22;53180;51.344;6.152;2023-03-21T02:11:06;10.10;80.70
33271;DHT22;53180;51.344;6.152;2023-03-21T02:13:35;10.10;80.70
33271;DHT22;53180;51.344;6.152;2023-03-21T02:16:10;10.10;80.70
33271;DHT22;53180;51.344;6.152;2023-03-21T02:18:48;10.10;80.70
33271;DHT22;53180;51.344;6.152;2023-03-21T02:21:56;10.00;80.80
33271;DHT22;53180;51.344;6.152;2023-03-21T02:25:06;10.00;80.80
33271;DHT22;53180;51.344;6.152;2023-03-21T02:27:51;10.00;80.80
33271;DHT22;53180;51.344;6.152;2023-03-21T02:30:40;10.00;80.80
33271;DHT22;53180;51.344;6.152;2023-03-21T02:33:46;10.00;80.80
33271;DHT22;53180;51.344;6.152;2023-03-21T02:36:54;9.90;80.80
33271;DHT22;53180;51.344;6.152;2023-03-21T02:39:29;9.90;80.70
33271;DHT22;53180;51.344;6.152;2023-03-21T02:42:08;9.90;80.80
33271;DHT22;53180;51.344;6.152;2023-03-21T02:44:42;9.90;80.80
33271;DHT22;53180;51.344;6.152;2023-03-21T02:47:16;9.90;80.80
33271;DHT22;53180;51.344;6.152;2023-03-21T02:49:49;9.90;80.70
33271;DHT22;53180;51.344;6.152;2023-03-21T02:52:23;9.90;80.70
33271;DHT22;53180;51.344;6.152;2023-03-21T02:55:08;9.90;80.70
33271;DHT22;53180;51.344;6.152;2023-03-21T02:57:40;9.90;80.70
33271;DHT22;53180;51.344;6.152;2023-03-21T03:00:16;9.90;80.70
33271;DHT22;53180;51.344;6.152;2023-03-21T03:02:47;9.90;80.60
33271;DHT22;53180;51.344;6.152;2023-03-21T03:05:34;9.90;80.60
33271;DHT22;53180;51.344;6.152;2023-03-21T03:08:17;9.90;80.50
33271;DHT22;53180;51.344;6.152;2023-03-21T03:11:14;9.90;80.60
33271;DHT22;53180;51.344;6.152;2023-03-21T03:13:59;9.90;80.80
33271;DHT22;53180;51.344;6.152;2023-03-21T03:17:15;9.90;80.70
33271;DHT22;53180;51.344;6.152;2023-03-21T03:19:57;9.90;80.80
33271;DHT22;53180;51.344;6.152;2023-03-21T03:22:48;9.90;81.10
33271;DHT22;53180;51.344;6.152;2023-03-21T03:25:25;9.90;81.50
33271;DHT22;53180;51.344;6.152;2023-03-21T03:28:09;9.80;81.70
33271;DHT22;53180;51.344;6.152;2023-03-21T03:30:38;9.80;81.70
33271;DHT22;53180;51.344;6.152;2023-03-21T03:33:24;9.80;81.90
33271;DHT22;53180;51.344;6.152;2023-03-21T03:35:55;9.80;82.00
33271;DHT22;53180;51.344;6.152;2023-03-21T03:38:31;9.90;82.00
33271;DHT22;53180;51.344;6.152;2023-03-21T03:41:08;9.80;82.40
33271;DHT22;53180;51.344;6.152;2023-03-21T03:43:40;9.80;82.80
33271;DHT22;53180;51.344;6.152;2023-03-21T03:46:16;9.70;83.00
33271;DHT22;53180;51.344;6.152;2023-03-21T03:48:48;9.70;83.00
33271;DHT22;53180;51.344;6.152;2023-03-21T03:51:22;9.70;83.30
33271;DHT22;53180;51.344;6.152;2023-03-21T03:53:56;9.70;83.40
33271;DHT22;53180;51.344;6.152;2023-03-21T03:56:28;9.70;83.50
33271;DHT22;53180;51.344;6.152;2023-03-21T03:58:56;9.70;83.70
33271;DHT22;53180;51.344;6.152;2023-03-21T04:01:25;9.70;84.00
33271;DHT22;53180;51.344;6.152;2023-03-21T04:03:53;9.60;84.20
33271;DHT22;53180;51.344;6.152;2023-03-21T04:06:38;9.70;84.20
33271;DHT22;53180;51.344;6.152;2023-03-21T04:09:07;9.70;84.40
33271;DHT22;53180;51.344;6.152;2023-03-21T04:11:47;9.70;84.60
33271;DHT22;53180;51.344;6.152;2023-03-21T04:14:16;9.60;84.70
33271;DHT22;53180;51.344;6.152;2023-03-21T04:16:44;9.60;85.00
33271;DHT22;53180;51.344;6.152;2023-03-21T04:19:13;9.60;85.20
33271;DHT22;53180;51.344;6.152;2023-03-21T04:21:41;9.50;85.60
33271;DHT22;53180;51.344;6.152;2023-03-21T04:24:09;9.50;85.60
33271;DHT22;53180;51.344;6.152;2023-03-21T04:26:39;9.50;85.60
33271;DHT22;53180;51.344;6.152;2023-03-21T04:29:09;9.50;85.60
33271;DHT22;53180;51.344;6.152;2023-03-21T04:31:37;9.50;85.80
33271;DHT22;53180;51.344;6.152;2023-03-21T04:34:07;9.50;85.80
33271;DHT22;53180;51.344;6.152;2023-03-21T04:36:38;9.50;86.20
33271;DHT22;53180;51.344;6.152;2023-03-21T04:39:09;9.50;85.90
33271;DHT22;53180;51.344;6.152;2023-03-21T04:41:39;9.50;85.80
33271;DHT22;53180;51.344;6.152;2023-03-21T04:44:09;9.50;85.80
33271;DHT22;53180;51.344;6.152;2023-03-21T04:46:39;9.50;85.80
33271;DHT22;53180;51.344;6.152;2023-03-21T04:49:07;9.50;85.90
33271;DHT22;53180;51.344;6.152;2023-03-21T04:51:36;9.50;85.90
33271;DHT22;53180;51.344;6.152;2023-03-21T04:54:05;9.50;85.80
33271;DHT22;53180;51.344;6.152;2023-03-21T04:56:32;9.50;85.70
33271;DHT22;53180;51.344;6.152;2023-03-21T04:59:06;9.40;85.90
33271;DHT22;53180;51.344;6.152;2023-03-21T05:01:37;9.50;85.90
33271;DHT22;53180;51.344;6.152;2023-03-21T05:04:07;9.50;85.90
33271;DHT22;53180;51.344;6.152;2023-03-21T05:06:35;9.40;85.80
33271;DHT22;53180;51.344;6.152;2023-03-21T05:09:04;9.50;85.70
33271;DHT22;53180;51.344;6.152;2023-03-21T05:11:34;9.50;85.70
33271;DHT22;53180;51.344;6.152;2023-03-21T05:14:04;9.40;85.60
33271;DHT22;53180;51.344;6.152;2023-03-21T05:16:34;9.50;85.60
33271;DHT22;53180;51.344;6.152;2023-03-21T05:19:05;9.50;85.60
33271;DHT22;53180;51.344;6.152;2023-03-21T05:21:33;9.50;85.60
33271;DHT22;53180;51.344;6.152;2023-03-21T05:24:08;9.50;85.50
33271;DHT22;53180;51.344;6.152;2023-03-21T05:26:39;9.50;85.60
33271;DHT22;53180;51.344;6.152;2023-03-21T05:29:09;9.50;85.40
33271;DHT22;53180;51.344;6.152;2023-03-21T05:31:37;9.50;85.20
33271;DHT22;53180;51.344;6.152;2023-03-21T05:34:07;9.50;85.20
33271;DHT22;53180;51.344;6.152;2023-03-21T05:36:35;9.50;85.20
33271;DHT22;53180;51.344;6.152;2023-03-21T05:39:03;9.50;85.00
33271;DHT22;53180;51.344;6.152;2023-03-21T05:41:32;9.60;85.00
33271;DHT22;53180;51.344;6.152;2023-03-21T05:44:00;9.60;84.80
33271;DHT22;53180;51.344;6.152;2023-03-21T05:46:28;9.60;84.80
33271;DHT22;53180;51.344;6.152;2023-03-21T05:48:57;9.60;84.80
33271;DHT22;53180;51.344;6.152;2023-03-21T05:51:26;9.70;84.70
33271;DHT22;53180;51.344;6.152;2023-03-21T05:53:55;9.70;84.60
33271;DHT22;53180;51.344;6.152;2023-03-21T05:56:23;9.70;84.40
33271;DHT22;53180;51.344;6.152;2023-03-21T05:58:51;9.70;84.60
33271;DHT22;53180;51.344;6.152;2023-03-21T06:01:19;9.70;84.50
33271;DHT22;53180;51.344;6.152;2023-03-21T06:03:48;9.70;84.50
33271;DHT22;53180;51.344;6.152;2023-03-21T06:06:16;9.70;84.50
33271;DHT22;53180;51.344;6.152;2023-03-21T06:08:46;9.70;84.50
33271;DHT22;53180;51.344;6.152;2023-03-21T06:11:21;9.70;84.40
33271;DHT22;53180;51.344;6.152;2023-03-21T06:13:51;9.70;84.40
33271;DHT22;53180;51.344;6.152;2023-03-21T06:16:19;9.70;84.50
33271;DHT22;53180;51.344;6.152;2023-03-21T06:18:48;9.70;84.50
33271;DHT22;53180;51.344;6.152;2023-03-21T06:21:16;9.70;84.60
33271;DHT22;53180;51.344;6.152;2023-03-21T06:23:47;9.80;84.60
33271;DHT22;53180;51.344;6.152;2023-03-21T06:26:17;9.80;84.70
33271;DHT22;53180;51.344;6.152;2023-03-21T06:28:49;9.80;84.80
33271;DHT22;53180;51.344;6.152;2023-03-21T06:31:17;9.80;84.90
33271;DHT22;53180;51.344;6.152;2023-03-21T06:33:48;9.90;84.90
33271;DHT22;53180;51.344;6.152;2023-03-21T06:36:18;9.90;84.90
33271;DHT22;53180;51.344;6.152;2023-03-21T06:38:47;9.90;84.80
33271;DHT22;53180;51.344;6.152;2023-03-21T06:41:16;9.90;84.80
33271;DHT22;53180;51.344;6.152;2023-03-21T06:43:44;9.90;84.90
33271;DHT22;53180;51.344;6.152;2023-03-21T06:46:14;9.90;84.70
33271;DHT22;53180;51.344;6.152;2023-03-21T06:48:42;9.90;84.70
33271;DHT22;53180;51.344;6.152;2023-03-21T06:51:11;10.00;84.50
33271;DHT22;53180;51.344;6.152;2023-03-21T06:53:41;9.90;84.40
33271;DHT22;53180;51.344;6.152;2023-03-21T06:56:12;10.00;84.50
33271;DHT22;53180;51.344;6.152;2023-03-21T06:58:41;10.00;84.50
33271;DHT22;53180;51.344;6.152;2023-03-21T07:01:09;10.00;84.40
33271;DHT22;53180;51.344;6.152;2023-03-21T07:03:38;10.00;84.50
33271;DHT22;53180;51.344;6.152;2023-03-21T07:06:08;10.10;84.50
33271;DHT22;53180;51.344;6.152;2023-03-21T07:08:38;10.10;84.40
33271;DHT22;53180;51.344;6.152;2023-03-21T07:11:07;10.00;84.40
33271;DHT22;53180;51.344;6.152;2023-03-21T07:13:37;10.10;84.50
33271;DHT22;53180;51.344;6.152;2023-03-21T07:16:07;10.10;84.30
33271;DHT22;53180;51.344;6.152;2023-03-21T07:18:36;10.10;84.40
33271;DHT22;53180;51.344;6.152;2023-03-21T07:21:05;10.20;84.50
33271;DHT22;53180;51.344;6.152;2023-03-21T07:23:34;10.20;84.40
33271;DHT22;53180;51.344;6.152;2023-03-21T07:26:04;10.10;84.60
33271;DHT22;53180;51.344;6.152;2023-03-21T07:28:33;10.20;84.50
33271;DHT22;53180;51.344;6.152;2023-03-21T07:31:05;10.20;84.20
33271;DHT22;53180;51.344;6.152;2023-03-21T07:33:34;10.20;84.40
33271;DHT22;53180;51.344;6.152;2023-03-21T07:36:03;10.20;84.30
33271;DHT22;53180;51.344;6.152;2023-03-21T07:38:37;10.20;84.60
33271;DHT22;53180;51.344;6.152;2023-03-21T07:41:06;10.20;84.40
33271;DHT22;53180;51.344;6.152;2023-03-21T07:43:35;10.20;84.50
33271;DHT22;53180;51.344;6.152;2023-03-21T07:46:06;10.20;84.50
33271;DHT22;53180;51.344;6.152;2023-03-21T07:48:35;10.20;84.60
33271;DHT22;53180;51.344;6.152;2023-03-21T07:51:03;10.20;84.60
33271;DHT22;53180;51.344;6.152;2023-03-21T07:53:32;10.20;84.50
33271;DHT22;53180;51.344;6.152;2023-03-21T07:56:00;10.20;84.70
33271;DHT22;53180;51.344;6.152;2023-03-21T07:58:29;10.20;84.50
33271;DHT22;53180;51.344;6.152;2023-03-21T08:01:00;10.20;84.50
33271;DHT22;53180;51.344;6.152;2023-03-21T08:03:30;10.20;84.50
33271;DHT22;53180;51.344;6.152;2023-03-21T08:06:00;10.20;84.60
33271;DHT22;53180;51.344;6.152;2023-03-21T08:08:28;10.20;84.60
33271;DHT22;53180;51.344;6.152;2023-03-21T08:10:57;10.20;84.90
33271;DHT22;53180;51.344;6.152;2023-03-21T08:13:25;10.30;85.30
33271;DHT22;53180;51.344;6.152;2023-03-21T08:15:53;10.30;85.50
33271;DHT22;53180;51.344;6.152;2023-03-21T08:18:22;10.30;85.60
33271;DHT22;53180;51.344;6.152;2023-03-21T08:20:52;10.30;85.70
33271;DHT22;53180;51.344;6.152;2023-03-21T08:23:21;10.20;86.10
33271;DHT22;53180;51.344;6.152;2023-03-21T08:25:50;10.20;86.20
33271;DHT22;53180;51.344;6.152;2023-03-21T08:28:20;10.20;86.30
33271;DHT22;53180;51.344;6.152;2023-03-21T08:30:49;10.30;86.50
33271;DHT22;53180;51.344;6.152;2023-03-21T08:33:18;10.30;86.70
33271;DHT22;53180;51.344;6.152;2023-03-21T08:35:46;10.30;86.80
33271;DHT22;53180;51.344;6.152;2023-03-21T08:38:16;10.30;87.00
33271;DHT22;53180;51.344;6.152;2023-03-21T08:40:44;10.20;87.20
33271;DHT22;53180;51.344;6.152;2023-03-21T08:43:13;10.30;87.30
33271;DHT22;53180;51.344;6.152;2023-03-21T08:45:41;10.30;87.30
33271;DHT22;53180;51.344;6.152;2023-03-21T08:48:09;10.30;87.40
33271;DHT22;53180;51.344;6.152;2023-03-21T08:50:38;10.40;87.40
33271;DHT22;53180;51.344;6.152;2023-03-21T08:53:06;10.40;87.50
33271;DHT22;53180;51.344;6.152;2023-03-21T08:55:36;10.40;87.20
33271;DHT22;53180;51.344;6.152;2023-03-21T08:58:04;10.40;87.20
33271;DHT22;53180;51.344;6.152;2023-03-21T09:00:33;10.40;87.00
33271;DHT22;53180;51.344;6.152;2023-03-21T09:03:01;10.40;86.80
33271;DHT22;53180;51.344;6.152;2023-03-21T09:05:31;10.50;86.90
33271;DHT22;53180;51.344;6.152;2023-03-21T09:07:59;10.50;86.50
33271;DHT22;53180;51.344;6.152;2023-03-21T09:10:29;10.50;86.50
33271;DHT22;53180;51.344;6.152;2023-03-21T09:12:58;10.50;86.00
33271;DHT22;53180;51.344;6.152;2023-03-21T09:15:27;10.60;86.00
33271;DHT22;53180;51.344;6.152;2023-03-21T09:17:55;10.60;86.40
33271;DHT22;53180;51.344;6.152;2023-03-21T09:20:39;10.70;86.50
33271;DHT22;53180;51.344;6.152;2023-03-21T09:23:08;10.70;85.90
33271;DHT22;53180;51.344;6.152;2023-03-21T09:25:38;10.70;85.90
33271;DHT22;53180;51.344;6.152;2023-03-21T09:28:08;10.70;85.80
33271;DHT22;53180;51.344;6.152;2023-03-21T09:30:36;10.60;85.80
33271;DHT22;53180;51.344;6.152;2023-03-21T09:33:05;10.70;85.70
33271;DHT22;53180;51.344;6.152;2023-03-21T09:35:39;10.60;85.90
33271;DHT22;53180;51.344;6.152;2023-03-21T09:38:08;10.60;86.10
33271;DHT22;53180;51.344;6.152;2023-03-21T09:40:51;10.60;86.30
33271;DHT22;53180;51.344;6.152;2023-03-21T09:43:39;10.60;86.50
33271;DHT22;53180;51.344;6.152;2023-03-21T09:46:20;10.50;86.50
33271;DHT22;53180;51.344;6.152;2023-03-21T09:48:55;10.50;86.50
33271;DHT22;53180;51.344;6.152;2023-03-21T09:51:30;10.50;86.60
33271;DHT22;53180;51.344;6.152;2023-03-21T09:54:04;10.50;86.90
33271;DHT22;53180;51.344;6.152;2023-03-21T09:56:35;10.60;86.90
33271;DHT22;53180;51.344;6.152;2023-03-21T09:59:09;10.50;86.90
33271;DHT22;53180;51.344;6.152;2023-03-21T10:01:47;10.60;86.90
33271;DHT22;53180;51.344;6.152;2023-03-21T10:04:16;10.60;86.90
33271;DHT22;53180;51.344;6.152;2023-03-21T10:06:53;10.70;86.80
33271;DHT22;53180;51.344;6.152;2023-03-21T10:09:26;10.70;86.90
33271;DHT22;53180;51.344;6.152;2023-03-21T10:11:59;10.70;86.70
33271;DHT22;53180;51.344;6.152;2023-03-21T10:14:34;10.80;86.60
33271;DHT22;53180;51.344;6.152;2023-03-21T10:17:10;10.90;86.80
33271;DHT22;53180;51.344;6.152;2023-03-21T10:19:49;10.90;86.40
33271;DHT22;53180;51.344;6.152;2023-03-21T10:22:23;11.00;86.30
33271;DHT22;53180;51.344;6.152;2023-03-21T10:24:51;11.10;86.40
33271;DHT22;53180;51.344;6.152;2023-03-21T10:27:19;11.10;86.10
33271;DHT22;53180;51.344;6.152;2023-03-21T10:29:49;11.20;85.80
33271;DHT22;53180;51.344;6.152;2023-03-21T10:32:19;11.20;85.50
33271;DHT22;53180;51.344;6.152;2023-03-21T10:34:50;11.30;85.10
33271;DHT22;53180;51.344;6.152;2023-03-21T10:37:22;11.30;85.00
33271;DHT22;53180;51.344;6.152;2023-03-21T10:39:52;11.30;85.50
33271;DHT22;53180;51.344;6.152;2023-03-21T10:42:23;11.40;84.30
33271;DHT22;53180;51.344;6.152;2023-03-21T10:44:55;11.30;84.20
33271;DHT22;53180;51.344;6.152;2023-03-21T10:47:25;11.40;83.80
33271;DHT22;53180;51.344;6.152;2023-03-21T10:49:56;11.40;83.80
33271;DHT22;53180;51.344;6.152;2023-03-21T10:52:36;11.50;84.00
33271;DHT22;53180;51.344;6.152;2023-03-21T10:55:14;11.50;83.70
33271;DHT22;53180;51.344;6.152;2023-03-21T10:57:45;11.60;83.50
33271;DHT22;53180;51.344;6.152;2023-03-21T11:00:20;11.60;83.00
33271;DHT22;53180;51.344;6.152;2023-03-21T11:02:50;11.70;83.00
33271;DHT22;53180;51.344;6.152;2023-03-21T11:05:23;11.70;82.80
33271;DHT22;53180;51.344;6.152;2023-03-21T11:08:02;11.70;82.90
33271;DHT22;53180;51.344;6.152;2023-03-21T11:10:34;11.80;82.80
33271;DHT22;53180;51.344;6.152;2023-03-21T11:13:07;11.80;82.70
33271;DHT22;53180;51.344;6.152;2023-03-21T11:15:52;11.80;82.30
33271;DHT22;53180;51.344;6.152;2023-03-21T11:18:23;11.90;82.00
33271;DHT22;53180;51.344;6.152;2023-03-21T11:20:54;11.90;81.50
33271;DHT22;53180;51.344;6.152;2023-03-21T11:23:26;11.90;81.80
33271;DHT22;53180;51.344;6.152;2023-03-21T11:25:58;12.00;81.40
33271;DHT22;53180;51.344;6.152;2023-03-21T11:28:32;12.00;80.90
33271;DHT22;53180;51.344;6.152;2023-03-21T11:31:06;12.10;81.10
33271;DHT22;53180;51.344;6.152;2023-03-21T11:33:37;12.20;81.00
33271;DHT22;53180;51.344;6.152;2023-03-21T11:36:25;12.20;80.60
33271;DHT22;53180;51.344;6.152;2023-03-21T11:39:13;12.30;80.90
33271;DHT22;53180;51.344;6.152;2023-03-21T11:41:47;12.30;80.80
33271;DHT22;53180;51.344;6.152;2023-03-21T11:44:26;12.30;80.40
33271;DHT22;53180;51.344;6.152;2023-03-21T11:46:58;12.30;79.00
33271;DHT22;53180;51.344;6.152;2023-03-21T11:49:27;12.30;78.30
33271;DHT22;53180;51.344;6.152;2023-03-21T11:52:09;12.30;78.60
33271;DHT22;53180;51.344;6.152;2023-03-21T11:55:00;12.40;78.40
33271;DHT22;53180;51.344;6.152;2023-03-21T11:57:43;12.50;77.60
33271;DHT22;53180;51.344;6.152;2023-03-21T12:00:18;12.60;77.40
33271;DHT22;53180;51.344;6.152;2023-03-21T12:03:16;12.70;76.90
33271;DHT22;53180;51.344;6.152;2023-03-21T12:06:21;12.80;76.20
33271;DHT22;53180;51.344;6.152;2023-03-21T12:09:04;13.00;75.10
33271;DHT22;53180;51.344;6.152;2023-03-21T12:11:52;13.00;74.10
33271;DHT22;53180;51.344;6.152;2023-03-21T12:14:31;13.00;73.50
33271;DHT22;53180;51.344;6.152;2023-03-21T12:17:12;13.10;73.10
33271;DHT22;53180;51.344;6.152;2023-03-21T12:20:00;13.10;70.60
33271;DHT22;53180;51.344;6.152;2023-03-21T12:22:40;13.10;70.40
33271;DHT22;53180;51.344;6.152;2023-03-21T12:25:18;13.10;70.10
33271;DHT22;53180;51.344;6.152;2023-03-21T12:27:59;13.10;70.60
33271;DHT22;53180;51.344;6.152;2023-03-21T12:30:44;13.10;69.60
33271;DHT22;53180;51.344;6.152;2023-03-21T12:33:27;13.10;69.60
33271;DHT22;53180;51.344;6.152;2023-03-21T12:36:22;13.20;69.40
33271;DHT22;53180;51.344;6.152;2023-03-21T12:39:06;13.20;69.00
33271;DHT22;53180;51.344;6.152;2023-03-21T12:41:43;13.40;69.20
33271;DHT22;53180;51.344;6.152;2023-03-21T12:44:14;13.50;68.90
33271;DHT22;53180;51.344;6.152;2023-03-21T12:46:43;13.60;68.10
33271;DHT22;53180;51.344;6.152;2023-03-21T12:49:17;13.70;68.10
33271;DHT22;53180;51.344;6.152;2023-03-21T12:51:54;13.70;68.50
33271;DHT22;53180;51.344;6.152;2023-03-21T12:54:28;13.70;68.30
33271;DHT22;53180;51.344;6.152;2023-03-21T12:57:01;13.80;67.50
33271;DHT22;53180;51.344;6.152;2023-03-21T12:59:35;13.80;68.10
33271;DHT22;53180;51.344;6.152;2023-03-21T13:02:15;13.80;66.40
33271;DHT22;53180;51.344;6.152;2023-03-21T13:04:55;13.70;66.20
33271;DHT22;53180;51.344;6.152;2023-03-21T13:07:31;13.80;67.90
33271;DHT22;53180;51.344;6.152;2023-03-21T13:10:05;13.80;67.30
33271;DHT22;53180;51.344;6.152;2023-03-21T13:12:57;13.90;66.20
33271;DHT22;53180;51.344;6.152;2023-03-21T13:15:39;13.90;65.20
33271;DHT22;53180;51.344;6.152;2023-03-21T13:18:38;14.00;66.20
33271;DHT22;53180;51.344;6.152;2023-03-21T13:21:14;14.10;64.40
33271;DHT22;53180;51.344;6.152;2023-03-21T13:23:59;14.20;65.50
33271;DHT22;53180;51.344;6.152;2023-03-21T13:26:37;14.30;64.50
33271;DHT22;53180;51.344;6.152;2023-03-21T13:29:19;14.50;64.60
33271;DHT22;53180;51.344;6.152;2023-03-21T13:31:52;14.40;62.80
33271;DHT22;53180;51.344;6.152;2023-03-21T13:34:25;14.40;63.40
33271;DHT22;53180;51.344;6.152;2023-03-21T13:36:55;14.40;64.30
33271;DHT22;53180;51.344;6.152;2023-03-21T13:39:27;14.50;64.60
33271;DHT22;53180;51.344;6.152;2023-03-21T13:42:02;14.60;65.40
33271;DHT22;53180;51.344;6.152;2023-03-21T13:44:39;14.90;64.70
33271;DHT22;53180;51.344;6.152;2023-03-21T13:47:27;15.10;63.40
33271;DHT22;53180;51.344;6.152;2023-03-21T13:50:27;15.00;61.50
33271;DHT22;53180;51.344;6.152;2023-03-21T13:53:23;14.80;61.90
33271;DHT22;53180;51.344;6.152;2023-03-21T13:58:52;14.50;62.00
33271;DHT22;53180;51.344;6.152;2023-03-21T14:01:30;14.50;63.40
33271;DHT22;53180;51.344;6.152;2023-03-21T14:04:12;14.50;62.80
33271;DHT22;53180;51.344;6.152;2023-03-21T14:06:45;14.50;62.60
33271;DHT22;53180;51.344;6.152;2023-03-21T14:09:24;14.50;63.10
33271;DHT22;53180;51.344;6.152;2023-03-21T14:11:56;14.50;63.50
33271;DHT22;53180;51.344;6.152;2023-03-21T14:14:37;14.60;63.00
33271;DHT22;53180;51.344;6.152;2023-03-21T14:17:11;14.80;63.70
33271;DHT22;53180;51.344;6.152;2023-03-21T14:19:40;14.80;63.20
33271;DHT22;53180;51.344;6.152;2023-03-21T14:22:09;15.00;63.50
33271;DHT22;53180;51.344;6.152;2023-03-21T14:24:39;15.00;61.80
33271;DHT22;53180;51.344;6.152;2023-03-21T14:27:10;15.00;61.00
33271;DHT22;53180;51.344;6.152;2023-03-21T14:29:38;15.00;62.00
33271;DHT22;53180;51.344;6.152;2023-03-21T14:32:17;15.10;62.50
33271;DHT22;53180;51.344;6.152;2023-03-21T14:34:48;15.20;62.20
33271;DHT22;53180;51.344;6.152;2023-03-21T14:37:31;15.10;61.40
33271;DHT22;53180;51.344;6.152;2023-03-21T14:40:02;15.00;60.90
33271;DHT22;53180;51.344;6.152;2023-03-21T14:42:37;14.90;61.40
33271;DHT22;53180;51.344;6.152;2023-03-21T14:45:15;14.80;61.30
33271;DHT22;53180;51.344;6.152;2023-03-21T14:47:53;14.70;61.20
33271;DHT22;53180;51.344;6.152;2023-03-21T14:50:45;14.70;62.30
33271;DHT22;53180;51.344;6.152;2023-03-21T14:53:19;14.70;62.20
33271;DHT22;53180;51.344;6.152;2023-03-21T14:55:52;14.70;61.80
33271;DHT22;53180;51.344;6.152;2023-03-21T14:58:26;14.70;61.80
33271;DHT22;53180;51.344;6.152;2023-03-21T15:00:59;14.60;61.40
33271;DHT22;53180;51.344;6.152;2023-03-21T15:03:30;14.60;62.00
33271;DHT22;53180;51.344;6.152;2023-03-21T15:05:59;14.60;62.20
33271;DHT22;53180;51.344;6.152;2023-03-21T15:08:28;14.60;62.40
33271;DHT22;53180;51.344;6.152;2023-03-21T15:10:59;14.60;62.20
33271;DHT22;53180;51.344;6.152;2023-03-21T15:13:36;14.60;62.80
33271;DHT22;53180;51.344;6.152;2023-03-21T15:16:16;14.60;62.30
33271;DHT22;53180;51.344;6.152;2023-03-21T15:18:45;14.60;62.10
33271;DHT22;53180;51.344;6.152;2023-03-21T15:21:17;14.50;62.40
33271;DHT22;53180;51.344;6.152;2023-03-21T15:23:52;14.50;63.50
33271;DHT22;53180;51.344;6.152;2023-03-21T15:26:24;14.50;64.00
33271;DHT22;53180;51.344;6.152;2023-03-21T15:28:57;14.50;64.00
33271;DHT22;53180;51.344;6.152;2023-03-21T15:31:29;14.50;63.40
33271;DHT22;53180;51.344;6.152;2023-03-21T15:33:58;14.50;64.00
33271;DHT22;53180;51.344;6.152;2023-03-21T15:36:31;14.50;63.90
33271;DHT22;53180;51.344;6.152;2023-03-21T15:39:01;14.50;64.10
33271;DHT22;53180;51.344;6.152;2023-03-21T15:41:32;14.50;64.50
33271;DHT22;53180;51.344;6.152;2023-03-21T15:44:20;14.50;64.50
33271;DHT22;53180;51.344;6.152;2023-03-21T15:46:50;14.50;64.50
33271;DHT22;53180;51.344;6.152;2023-03-21T15:49:24;14.50;64.20
33271;DHT22;53180;51.344;6.152;2023-03-21T15:51:57;14.40;64.50
33271;DHT22;53180;51.344;6.152;2023-03-21T15:54:50;14.40;64.90
33271;DHT22;53180;51.344;6.152;2023-03-21T15:57:24;14.40;64.30
33271;DHT22;53180;51.344;6.152;2023-03-21T16:00:24;14.40;64.30
33271;DHT22;53180;51.344;6.152;2023-03-21T16:02:57;14.40;64.90
33271;DHT22;53180;51.344;6.152;2023-03-21T16:05:30;14.40;65.00
33271;DHT22;53180;51.344;6.152;2023-03-21T16:08:03;14.40;65.10
33271;DHT22;53180;51.344;6.152;2023-03-21T16:10:36;14.40;65.30
33271;DHT22;53180;51.344;6.152;2023-03-21T16:13:04;14.50;65.70
33271;DHT22;53180;51.344;6.152;2023-03-21T16:15:34;14.50;65.90
33271;DHT22;53180;51.344;6.152;2023-03-21T16:18:04;14.50;66.10
33271;DHT22;53180;51.344;6.152;2023-03-21T16:20:39;14.40;66.10